createdAt,value
2023-04-06T00:00:55.300Z,3.50
2023-04-06T00:03:22.264Z,3.40
2023-04-06T00:05:49.998Z,3.27
2023-04-06T00:08:16.783Z,3.60
2023-04-06T00:10:43.791Z,3.50
2023-04-06T00:13:10.901Z,3.30
2023-04-06T00:15:37.635Z,3.40
2023-04-06T00:18:04.663Z,3.87
2023-04-06T00:20:31.723Z,2.90
2023-04-06T00:22:58.528Z,3.60
2023-04-06T00:25:26.617Z,3.20
2023-04-06T00:27:53.543Z,3.27
2023-04-06T00:30:20.657Z,3.67
2023-04-06T00:32:47.495Z,3.43
2023-04-06T00:35:15.891Z,3.63
2023-04-06T00:37:42.941Z,5.53
2023-04-06T00:40:10.710Z,3.53
2023-04-06T00:42:37.824Z,6.67
2023-04-06T00:45:05.358Z,3.73
2023-04-06T00:47:32.357Z,4.00
2023-04-06T00:49:59.156Z,3.37
2023-04-06T00:52:26.175Z,3.40
2023-04-06T00:54:53.025Z,3.20
2023-04-06T00:57:20.665Z,3.67
2023-04-06T00:59:47.627Z,3.77
2023-04-06T01:02:14.529Z,3.77
2023-04-06T01:04:41.463Z,3.63
2023-04-06T01:07:08.236Z,3.67
2023-04-06T01:09:35.107Z,3.17
2023-04-06T01:12:02.071Z,3.80
2023-04-06T01:14:29.684Z,7.77
2023-04-06T01:17:01.452Z,3.40
2023-04-06T01:19:29.001Z,3.87
2023-04-06T01:21:56.084Z,4.47
2023-04-06T01:24:23.022Z,4.07
2023-04-06T01:26:49.890Z,3.57
2023-04-06T01:29:16.867Z,3.60
2023-04-06T01:31:43.889Z,4.40
2023-04-06T01:34:11.094Z,3.63
2023-04-06T01:36:37.991Z,3.70
2023-04-06T01:39:04.839Z,3.80
2023-04-06T01:41:31.987Z,4.33
2023-04-06T01:43:58.836Z,4.00
2023-04-06T01:46:25.926Z,4.40
2023-04-06T01:48:52.934Z,3.43
2023-04-06T01:51:19.823Z,3.60
2023-04-06T01:53:46.577Z,4.40
2023-04-06T01:56:13.453Z,3.63
2023-04-06T01:58:40.386Z,4.10
2023-04-06T02:01:07.441Z,4.30
2023-04-06T02:03:34.356Z,5.73
2023-04-06T02:06:01.123Z,3.53
2023-04-06T02:08:27.892Z,4.30
2023-04-06T02:10:54.634Z,4.13
2023-04-06T02:13:21.426Z,3.90
2023-04-06T02:15:48.228Z,4.10
2023-04-06T02:18:15.056Z,4.00
2023-04-06T02:20:41.826Z,4.23
2023-04-06T02:23:08.566Z,3.50
2023-04-06T02:25:35.766Z,3.23
2023-04-06T02:28:02.753Z,3.80
2023-04-06T02:30:30.261Z,3.90
2023-04-06T02:32:57.141Z,4.23
2023-04-06T02:35:29.297Z,3.97
2023-04-06T02:37:56.190Z,4.13
2023-04-06T02:40:23.082Z,3.67
2023-04-06T02:42:49.921Z,4.73
2023-04-06T02:45:17.104Z,3.80
2023-04-06T02:47:43.927Z,3.90
2023-04-06T02:50:10.953Z,3.83
2023-04-06T02:52:37.861Z,3.83
2023-04-06T02:55:05.460Z,4.07
2023-04-06T02:57:32.208Z,4.07
2023-04-06T02:59:58.955Z,4.50
2023-04-06T03:02:25.946Z,3.70
2023-04-06T03:04:52.748Z,3.70
2023-04-06T03:07:19.500Z,4.50
2023-04-06T03:09:46.283Z,4.57
2023-04-06T03:12:13.028Z,4.60
2023-04-06T03:14:39.773Z,4.30
2023-04-06T03:17:06.535Z,4.10
2023-04-06T03:19:33.266Z,4.30
2023-04-06T03:22:00.018Z,4.60
2023-04-06T03:24:26.878Z,4.20
2023-04-06T03:26:53.764Z,4.07
2023-04-06T03:29:20.711Z,4.07
2023-04-06T03:31:47.596Z,4.00
2023-04-06T03:34:14.438Z,4.50
2023-04-06T03:36:41.222Z,4.23
2023-04-06T03:39:08.193Z,4.50
2023-04-06T03:41:35.297Z,4.57
2023-04-06T03:44:02.164Z,6.17
2023-04-06T03:46:28.988Z,3.77
2023-04-06T03:48:55.919Z,4.20
2023-04-06T03:51:22.820Z,4.77
2023-04-06T03:53:49.589Z,4.07
2023-04-06T03:56:16.355Z,4.23
2023-04-06T03:58:45.455Z,4.30
2023-04-06T04:01:12.429Z,4.30
2023-04-06T04:03:39.301Z,4.47
2023-04-06T04:06:06.704Z,4.77
2023-04-06T04:08:33.525Z,4.77
2023-04-06T04:11:00.598Z,4.20
2023-04-06T04:13:27.438Z,4.70
2023-04-06T04:15:54.258Z,4.43
2023-04-06T04:18:21.225Z,4.23
2023-04-06T04:20:48.038Z,4.63
2023-04-06T04:23:14.837Z,4.20
2023-04-06T04:25:42.140Z,5.03
2023-04-06T04:28:08.990Z,4.40
2023-04-06T04:30:35.748Z,4.43
2023-04-06T04:33:02.633Z,4.30
2023-04-06T04:35:29.446Z,4.93
2023-04-06T04:37:57.420Z,4.60
2023-04-06T04:40:24.173Z,4.40
2023-04-06T04:42:52.059Z,5.13
2023-04-06T04:45:18.915Z,5.23
2023-04-06T04:47:45.718Z,4.30
2023-04-06T04:50:12.511Z,6.53
2023-04-06T04:52:39.363Z,4.60
2023-04-06T04:55:06.616Z,4.73
2023-04-06T04:57:33.395Z,4.03
2023-04-06T05:00:00.284Z,4.60
2023-04-06T05:02:27.236Z,4.90
2023-04-06T05:04:54.158Z,4.23
2023-04-06T05:07:21.786Z,5.67
2023-04-06T05:09:48.845Z,6.13
2023-04-06T05:12:15.969Z,4.90
2023-04-06T05:14:43.000Z,5.30
2023-04-06T05:17:10.249Z,7.93
2023-04-06T05:19:37.221Z,5.50
2023-04-06T05:22:04.024Z,4.77
2023-04-06T05:24:31.164Z,5.10
2023-04-06T05:26:58.015Z,5.53
2023-04-06T05:29:24.967Z,5.07
2023-04-06T05:31:52.602Z,5.07
2023-04-06T05:34:19.419Z,4.33
2023-04-06T05:36:46.255Z,4.90
2023-04-06T05:39:13.711Z,4.50
2023-04-06T05:41:40.765Z,5.37
2023-04-06T05:44:07.643Z,6.33
2023-04-06T05:46:34.443Z,4.33
2023-04-06T05:49:01.421Z,4.37
2023-04-06T05:51:28.381Z,4.87
2023-04-06T05:53:55.170Z,4.67
2023-04-06T05:56:22.199Z,5.07
2023-04-06T05:58:48.998Z,4.70
2023-04-06T06:01:16.733Z,5.13
2023-04-06T06:03:43.594Z,4.70
2023-04-06T06:06:10.417Z,4.93
2023-04-06T06:08:37.313Z,6.63
2023-04-06T06:11:04.300Z,4.60
2023-04-06T06:13:31.173Z,4.20
2023-04-06T06:15:58.518Z,4.37
2023-04-06T06:18:25.353Z,4.43
2023-04-06T06:20:52.240Z,4.40
2023-04-06T06:23:19.009Z,4.20
2023-04-06T06:25:45.922Z,4.20
2023-04-06T06:28:12.931Z,4.23
2023-04-06T06:30:39.658Z,4.23
2023-04-06T06:33:06.846Z,3.67
2023-04-06T06:35:33.644Z,4.33
2023-04-06T06:38:01.655Z,4.17
2023-04-06T06:40:28.888Z,3.70
2023-04-06T06:42:55.808Z,3.63
2023-04-06T06:45:22.716Z,3.20
2023-04-06T06:47:49.687Z,3.33
2023-04-06T06:50:16.547Z,3.30
2023-04-06T06:52:43.936Z,3.43
2023-04-06T06:55:11.988Z,3.03
2023-04-06T06:57:39.323Z,2.93
2023-04-06T07:00:08.328Z,3.70
2023-04-06T07:02:36.724Z,3.20
2023-04-06T07:05:10.124Z,2.97
2023-04-06T07:07:43.360Z,3.33
2023-04-06T07:10:11.662Z,8.40
2023-04-06T07:12:38.858Z,8.13
2023-04-06T07:15:06.462Z,5.27
2023-04-06T07:17:33.591Z,6.33
2023-04-06T07:20:00.399Z,8.07
2023-04-06T07:22:27.161Z,9.00
2023-04-06T07:24:53.915Z,6.37
2023-04-06T07:27:20.727Z,6.70
2023-04-06T07:29:47.933Z,6.00
2023-04-06T07:32:14.691Z,6.70
2023-04-06T07:34:41.454Z,5.57
2023-04-06T07:37:08.472Z,5.73
2023-04-06T07:39:35.745Z,5.73
2023-04-06T07:42:02.692Z,5.93
2023-04-06T07:44:29.590Z,5.93
2023-04-06T07:46:56.382Z,6.10
2023-04-06T07:49:23.874Z,6.47
2023-04-06T07:51:50.648Z,7.33
2023-04-06T07:54:17.927Z,5.93
2023-04-06T07:56:44.817Z,7.87
2023-04-06T07:59:12.328Z,6.63
2023-04-06T08:01:39.289Z,8.60
2023-04-06T08:04:06.666Z,7.33
2023-04-06T08:06:33.749Z,5.57
2023-04-06T08:09:00.512Z,5.37
2023-04-06T08:11:27.706Z,6.37
2023-04-06T08:13:57.661Z,7.00
2023-04-06T08:16:25.635Z,6.50
2023-04-06T08:18:52.375Z,5.83
2023-04-06T08:21:19.698Z,7.27
2023-04-06T08:23:47.078Z,5.93
2023-04-06T08:26:13.891Z,5.23
2023-04-06T08:28:40.874Z,5.77
2023-04-06T08:31:08.059Z,5.87
2023-04-06T08:33:40.096Z,6.40
2023-04-06T08:36:14.977Z,8.47
2023-04-06T08:38:43.839Z,5.67
2023-04-06T08:41:14.782Z,5.40
2023-04-06T08:43:58.159Z,6.00
2023-04-06T08:46:30.505Z,6.67
2023-04-06T08:48:59.576Z,6.30
2023-04-06T08:51:28.689Z,5.63
2023-04-06T08:53:57.567Z,5.60
2023-04-06T08:56:26.478Z,5.13
2023-04-06T08:58:57.276Z,5.83
2023-04-06T09:01:29.002Z,5.43
2023-04-06T09:04:01.682Z,5.70
2023-04-06T09:06:28.833Z,5.17
2023-04-06T09:08:56.062Z,5.97
2023-04-06T09:11:23.092Z,6.90
2023-04-06T09:13:53.876Z,7.20
2023-04-06T09:16:21.798Z,5.03
2023-04-06T09:18:50.173Z,4.97
2023-04-06T09:21:23.821Z,7.43
2023-04-06T09:24:03.406Z,5.73
2023-04-06T09:26:30.788Z,6.30
2023-04-06T09:29:02.084Z,9.10
2023-04-06T09:31:33.767Z,6.70
2023-04-06T09:34:01.914Z,6.47
2023-04-06T09:36:42.123Z,7.07
2023-04-06T09:39:09.044Z,5.23
2023-04-06T09:41:37.620Z,5.27
2023-04-06T09:44:07.267Z,6.37
2023-04-06T09:46:55.855Z,7.77
2023-04-06T09:49:34.244Z,5.83
2023-04-06T09:52:04.625Z,6.17
2023-04-06T09:54:33.264Z,6.50
2023-04-06T09:57:19.005Z,5.10
2023-04-06T09:59:59.366Z,7.53
2023-04-06T10:02:57.815Z,6.40
2023-04-06T10:05:51.108Z,6.57
2023-04-06T10:08:20.037Z,5.13
2023-04-06T10:10:48.300Z,7.77
2023-04-06T10:13:16.138Z,6.47
2023-04-06T10:15:44.037Z,7.37
2023-04-06T10:18:11.312Z,6.73
2023-04-06T10:20:43.854Z,7.23
2023-04-06T10:23:40.779Z,7.37
2023-04-06T10:26:15.419Z,5.87
2023-04-06T10:28:44.014Z,6.43
2023-04-06T10:31:11.249Z,6.63
2023-04-06T10:33:38.117Z,6.93
2023-04-06T10:36:22.185Z,5.93
2023-04-06T10:38:57.867Z,5.23
2023-04-06T10:41:24.699Z,5.63
2023-04-06T10:43:58.520Z,4.83
2023-04-06T10:46:34.071Z,5.93
2023-04-06T10:49:13.711Z,6.37
2023-04-06T10:51:41.093Z,4.50
2023-04-06T10:54:09.891Z,4.87
2023-04-06T10:56:39.668Z,6.30
2023-04-06T10:59:08.074Z,4.13
2023-04-06T11:01:35.484Z,5.03
2023-04-06T11:04:02.398Z,5.87
2023-04-06T11:06:32.384Z,5.10
2023-04-06T11:08:59.844Z,4.87
2023-04-06T11:11:28.034Z,5.27
2023-04-06T11:13:57.974Z,5.60
2023-04-06T11:16:34.019Z,5.17
2023-04-06T11:19:10.465Z,6.40
2023-04-06T11:21:49.036Z,6.00
2023-04-06T11:24:21.727Z,4.37
2023-04-06T11:26:55.170Z,4.63
2023-04-06T11:29:29.341Z,5.47
2023-04-06T11:32:02.220Z,5.17
2023-04-06T11:34:39.364Z,4.40
2023-04-06T11:37:12.690Z,4.77
2023-04-06T11:39:52.153Z,3.70
2023-04-06T11:42:27.482Z,4.43
2023-04-06T11:44:59.624Z,3.90
2023-04-06T11:47:36.447Z,4.60
2023-04-06T11:50:12.807Z,3.83
2023-04-06T11:52:43.763Z,3.63
2023-04-06T11:55:19.665Z,3.63
2023-04-06T11:57:46.514Z,4.67
2023-04-06T12:00:14.107Z,7.70
2023-04-06T12:02:41.134Z,4.93
2023-04-06T12:05:11.511Z,4.13
2023-04-06T12:07:38.669Z,5.07
2023-04-06T12:10:06.203Z,4.80
2023-04-06T12:12:33.285Z,4.10
2023-04-06T12:15:00.754Z,4.33
2023-04-06T12:17:27.613Z,4.40
2023-04-06T12:19:54.367Z,3.63
2023-04-06T12:22:21.234Z,3.90
2023-04-06T12:24:48.020Z,3.33
2023-04-06T12:27:14.931Z,7.57
2023-04-06T12:29:41.764Z,3.80
2023-04-06T12:32:09.248Z,4.00
2023-04-06T12:34:36.285Z,5.43
2023-04-06T12:37:03.134Z,5.53
2023-04-06T12:39:30.003Z,4.43
2023-04-06T12:41:58.096Z,3.80
2023-04-06T12:44:26.342Z,5.63
2023-04-06T12:46:53.886Z,3.07
2023-04-06T12:49:21.151Z,5.03
2023-04-06T12:51:47.917Z,5.00
2023-04-06T12:54:14.842Z,4.60
2023-04-06T12:56:42.043Z,3.73
2023-04-06T12:59:08.946Z,4.83
2023-04-06T13:01:35.938Z,3.27
2023-04-06T13:04:03.273Z,3.87
2023-04-06T13:06:31.198Z,5.40
2023-04-06T13:08:58.006Z,6.10
2023-04-06T13:11:27.147Z,4.47
2023-04-06T13:13:55.362Z,3.77
2023-04-06T13:16:22.307Z,3.77
2023-04-06T13:18:49.100Z,3.67
2023-04-06T13:21:17.416Z,3.47
2023-04-06T13:23:45.309Z,4.50
2023-04-06T13:26:14.169Z,2.97
2023-04-06T13:28:41.427Z,3.43
2023-04-06T13:31:09.265Z,5.10
2023-04-06T13:33:36.656Z,4.47
2023-04-06T13:36:03.832Z,3.90
2023-04-06T13:38:31.231Z,4.83
2023-04-06T13:40:58.900Z,5.70
2023-04-06T13:43:27.905Z,4.90
2023-04-06T13:46:01.587Z,5.30
2023-04-06T13:48:28.418Z,3.60
2023-04-06T13:50:55.188Z,3.80
2023-04-06T13:53:21.927Z,3.43
2023-04-06T13:55:56.428Z,2.97
2023-04-06T13:58:23.784Z,4.03
2023-04-06T14:00:50.696Z,3.63
2023-04-06T14:03:17.774Z,5.03
2023-04-06T14:05:45.298Z,5.53
2023-04-06T14:08:12.261Z,4.60
2023-04-06T14:10:43.175Z,4.33
2023-04-06T14:13:10.397Z,4.27
2023-04-06T14:15:37.437Z,4.30
2023-04-06T14:18:04.726Z,3.90
2023-04-06T14:20:34.855Z,3.50
2023-04-06T14:23:02.991Z,4.37
2023-04-06T14:25:32.359Z,3.47
2023-04-06T14:27:59.223Z,2.83
2023-04-06T14:30:26.078Z,2.60
2023-04-06T14:32:52.842Z,2.77
2023-04-06T14:35:19.635Z,2.97
2023-04-06T14:37:46.445Z,2.67
2023-04-06T14:40:13.427Z,2.77
2023-04-06T14:42:40.578Z,2.20
2023-04-06T14:45:08.200Z,2.27
2023-04-06T14:47:34.965Z,2.50
2023-04-06T14:50:01.710Z,2.87
2023-04-06T14:52:30.046Z,2.90
2023-04-06T14:54:58.734Z,2.93
2023-04-06T14:57:25.484Z,2.50
2023-04-06T14:59:55.277Z,3.20
2023-04-06T15:02:22.113Z,4.30
2023-04-06T15:04:49.034Z,2.70
2023-04-06T15:07:15.976Z,3.03
2023-04-06T15:09:42.767Z,2.93
2023-04-06T15:12:09.534Z,5.60
2023-04-06T15:14:36.377Z,3.53
2023-04-06T15:17:03.123Z,3.30
2023-04-06T15:19:29.816Z,3.47
2023-04-06T15:21:56.574Z,3.27
2023-04-06T15:24:23.304Z,3.57
2023-04-06T15:26:50.349Z,3.63
2023-04-06T15:29:17.234Z,2.93
2023-04-06T15:31:44.084Z,3.47
2023-04-06T15:34:10.944Z,3.03
2023-04-06T15:36:37.998Z,4.60
2023-04-06T15:39:09.323Z,3.47
2023-04-06T15:41:36.633Z,3.83
2023-04-06T15:44:03.514Z,3.77
2023-04-06T15:46:30.451Z,5.70
2023-04-06T15:48:57.567Z,5.40
2023-04-06T15:51:24.413Z,4.80
2023-04-06T15:53:51.262Z,4.83
2023-04-06T15:56:18.174Z,3.53
2023-04-06T15:58:45.159Z,3.77
2023-04-06T16:01:17.558Z,3.77
2023-04-06T16:03:45.928Z,4.20
2023-04-06T16:06:13.202Z,4.70
2023-04-06T16:08:40.934Z,3.90
2023-04-06T16:11:08.783Z,4.13
2023-04-06T16:13:36.830Z,3.80
2023-04-06T16:16:05.823Z,3.20
2023-04-06T16:18:34.965Z,3.37
2023-04-06T16:21:03.536Z,4.43
2023-04-06T16:23:30.427Z,6.60
2023-04-06T16:26:00.642Z,2.70
2023-04-06T16:28:27.462Z,3.90
2023-04-06T16:30:54.209Z,3.17
2023-04-06T16:33:23.023Z,3.20
2023-04-06T16:35:49.870Z,3.33
2023-04-06T16:38:17.203Z,4.00
2023-04-06T16:40:44.023Z,3.17
2023-04-06T16:43:10.862Z,3.87
2023-04-06T16:45:38.181Z,3.57
2023-04-06T16:48:06.079Z,2.70
2023-04-06T16:50:33.306Z,2.60
2023-04-06T16:53:00.153Z,3.10
2023-04-06T16:55:26.928Z,3.40
2023-04-06T16:57:56.613Z,2.50
2023-04-06T17:00:23.842Z,2.30
2023-04-06T17:02:50.908Z,2.27
2023-04-06T17:05:24.309Z,2.80
2023-04-06T17:07:51.136Z,1.97
2023-04-06T17:10:21.343Z,2.77
2023-04-06T17:12:55.633Z,2.97
2023-04-06T17:15:24.812Z,3.50
2023-04-06T17:17:52.091Z,4.10
2023-04-06T17:20:19.523Z,3.40
2023-04-06T17:22:47.060Z,3.77
2023-04-06T17:25:14.838Z,3.37
2023-04-06T17:27:41.777Z,3.53
2023-04-06T17:30:15.569Z,3.03
2023-04-06T17:32:44.157Z,3.10
2023-04-06T17:35:11.677Z,2.93
2023-04-06T17:37:38.896Z,2.47
2023-04-06T17:40:07.312Z,2.90
2023-04-06T17:42:34.160Z,2.80
2023-04-06T17:45:01.045Z,2.53
2023-04-06T17:47:32.015Z,2.47
2023-04-06T17:50:00.100Z,2.50
2023-04-06T17:52:29.004Z,3.07
2023-04-06T17:54:56.386Z,2.77
2023-04-06T17:57:23.480Z,2.37
2023-04-06T17:59:50.362Z,3.00
2023-04-06T18:02:20.251Z,2.53
2023-04-06T18:04:52.377Z,2.27
2023-04-06T18:07:19.484Z,2.60
2023-04-06T18:09:46.506Z,4.67
2023-04-06T18:12:13.257Z,16.37
2023-04-06T18:14:41.489Z,13.73
2023-04-06T18:17:08.479Z,13.40
2023-04-06T18:19:35.360Z,7.57
2023-04-06T18:22:02.106Z,5.80
2023-04-06T18:24:41.283Z,5.80
2023-04-06T18:27:10.745Z,3.23
2023-04-06T18:29:37.589Z,2.60
2023-04-06T18:32:05.920Z,2.97
2023-04-06T18:34:33.624Z,3.13
2023-04-06T18:37:01.507Z,2.83
2023-04-06T18:39:28.708Z,3.00
2023-04-06T18:41:55.877Z,3.97
2023-04-06T18:44:22.591Z,2.73
2023-04-06T18:46:49.885Z,4.03
2023-04-06T18:49:17.767Z,4.13
2023-04-06T18:51:44.567Z,3.17
2023-04-06T18:54:11.409Z,2.70
2023-04-06T18:56:38.835Z,2.50
2023-04-06T18:59:05.968Z,2.90
2023-04-06T19:01:33.148Z,3.17
2023-04-06T19:04:01.072Z,2.77
2023-04-06T19:06:28.271Z,2.80
2023-04-06T19:08:56.209Z,2.70
2023-04-06T19:11:24.868Z,3.60
2023-04-06T19:13:53.380Z,3.13
2023-04-06T19:16:20.180Z,3.27
2023-04-06T19:18:47.036Z,2.87
2023-04-06T19:21:24.916Z,4.13
2023-04-06T19:23:57.068Z,3.80
2023-04-06T19:26:26.910Z,3.47
2023-04-06T19:28:54.028Z,3.20
2023-04-06T19:31:21.362Z,3.13
2023-04-06T19:33:48.999Z,3.70
2023-04-06T19:36:16.352Z,8.93
2023-04-06T19:38:43.447Z,5.03
2023-04-06T19:41:10.278Z,6.17
2023-04-06T19:43:37.117Z,6.87
2023-04-06T19:46:04.685Z,4.27
2023-04-06T19:48:33.787Z,4.90
2023-04-06T19:51:01.037Z,6.73
2023-04-06T19:53:27.750Z,4.47
2023-04-06T19:55:54.575Z,3.77
2023-04-06T19:58:21.795Z,3.87
2023-04-06T20:00:48.585Z,5.60
2023-04-06T20:03:15.679Z,3.57
2023-04-06T20:05:42.609Z,3.60
2023-04-06T20:08:09.414Z,4.60
2023-04-06T20:10:36.587Z,6.60
2023-04-06T20:13:03.452Z,4.60
2023-04-06T20:15:30.674Z,4.00
2023-04-06T20:17:57.634Z,4.47
2023-04-06T20:20:24.605Z,4.03
2023-04-06T20:22:51.475Z,4.17
2023-04-06T20:25:19.677Z,3.73
2023-04-06T20:27:46.504Z,4.47
2023-04-06T20:30:15.049Z,3.97
2023-04-06T20:32:43.268Z,6.07
2023-04-06T20:35:10.447Z,3.90
2023-04-06T20:37:37.746Z,4.53
2023-04-06T20:40:05.485Z,4.20
2023-04-06T20:42:32.251Z,4.10
2023-04-06T20:44:59.391Z,4.57
2023-04-06T20:47:27.200Z,4.53
2023-04-06T20:49:54.438Z,4.67
2023-04-06T20:52:21.203Z,4.77
2023-04-06T20:54:48.600Z,4.20
2023-04-06T20:57:15.428Z,7.17
2023-04-06T20:59:42.863Z,5.43
2023-04-06T21:02:09.782Z,3.90
2023-04-06T21:04:37.371Z,4.77
2023-04-06T21:07:06.411Z,4.30
2023-04-06T21:09:38.775Z,4.13
2023-04-06T21:12:06.823Z,4.47
2023-04-06T21:14:34.114Z,4.60
2023-04-06T21:17:00.904Z,4.97
2023-04-06T21:19:27.860Z,4.57
2023-04-06T21:21:55.015Z,7.20
2023-04-06T21:24:22.001Z,4.37
2023-04-06T21:26:48.868Z,5.00
2023-04-06T21:29:15.800Z,4.13
2023-04-06T21:31:42.858Z,4.93
2023-04-06T21:34:11.778Z,4.37
2023-04-06T21:36:39.496Z,5.10
2023-04-06T21:39:07.333Z,4.50
2023-04-06T21:41:34.797Z,5.10
2023-04-06T21:44:01.663Z,5.10
2023-04-06T21:46:28.639Z,4.57
2023-04-06T21:48:55.745Z,3.93
2023-04-06T21:51:23.622Z,3.47
2023-04-06T21:53:52.174Z,4.73
2023-04-06T21:56:24.235Z,4.53
2023-04-06T21:58:53.077Z,4.20
2023-04-06T22:01:21.080Z,5.27
2023-04-06T22:03:48.275Z,4.87
2023-04-06T22:06:15.198Z,4.53
2023-04-06T22:08:42.581Z,4.50
2023-04-06T22:11:11.634Z,3.77
2023-04-06T22:13:40.812Z,4.57
2023-04-06T22:16:07.963Z,4.07
2023-04-06T22:18:38.103Z,4.53
2023-04-06T22:21:05.945Z,4.50
2023-04-06T22:23:32.945Z,5.83
2023-04-06T22:25:59.892Z,4.07
2023-04-06T22:28:27.042Z,4.10
2023-04-06T22:30:53.788Z,4.27
2023-04-06T22:33:20.516Z,4.20
2023-04-06T22:35:47.257Z,4.53
2023-04-06T22:38:13.995Z,4.50
2023-04-06T22:40:40.777Z,4.90
2023-04-06T22:43:07.501Z,5.60
2023-04-06T22:45:34.289Z,4.93
2023-04-06T22:48:01.221Z,7.10
2023-04-06T22:50:28.007Z,4.10
2023-04-06T22:52:54.974Z,4.07
2023-04-06T22:55:21.841Z,4.60
2023-04-06T22:57:48.594Z,4.03
2023-04-06T23:00:16.235Z,4.27
2023-04-06T23:02:43.168Z,4.27
2023-04-06T23:05:10.361Z,4.40
2023-04-06T23:07:37.173Z,4.00
2023-04-06T23:10:04.122Z,4.90
2023-04-06T23:12:30.934Z,3.90
2023-04-06T23:14:57.651Z,7.77
2023-04-06T23:17:24.763Z,4.40
2023-04-06T23:19:52.213Z,4.60
2023-04-06T23:22:18.994Z,4.23
2023-04-06T23:24:45.932Z,6.67
2023-04-06T23:27:12.679Z,5.07
2023-04-06T23:29:39.473Z,4.87
2023-04-06T23:32:06.400Z,8.47
2023-04-06T23:34:33.183Z,4.50
2023-04-06T23:37:02.812Z,4.50
2023-04-06T23:39:30.380Z,4.70
2023-04-06T23:41:57.966Z,4.57
2023-04-06T23:44:28.647Z,6.20
2023-04-06T23:46:55.451Z,4.67
2023-04-06T23:49:22.248Z,6.70
2023-04-06T23:51:48.929Z,6.20
2023-04-06T23:54:15.643Z,4.50
2023-04-06T23:56:42.382Z,4.40
2023-04-06T23:59:09.118Z,4.87
